Time;durP1;ratioP1;P1;durP2;ratioP2;P2;SDS_P1;SDS_P2;PMS_P1;PMS_P2;Temp;Humidity;BMP_temperature;BMP_pressure;BME280_temperature;BME280_humidity;BME280_pressure;Samples;Min_cycle;Max_cycle;Signal;HPM_P1;HPM_P2
2021/01/27 00:00:39;;;;;;;10.45;7.65;;;;;;;2.22;71.93;99234.48;1820747;78;21542;-63
2021/01/27 00:03:07;;;;;;;10.32;8.90;;;;;;;2.23;71.69;99235.70;1820675;78;21111;-63
2021/01/27 00:05:39;;;;;;;9.60;8.30;;;;;;;2.23;71.38;99242.12;1820650;78;21566;-64
2021/01/27 00:08:08;;;;;;;8.73;7.83;;;;;;;2.21;71.43;99250.33;1820659;78;20978;-63
2021/01/27 00:10:37;;;;;;;11.45;9.25;;;;;;;2.20;71.66;99258.09;1820778;78;21424;-64
2021/01/27 00:13:12;;;;;;;9.98;8.58;;;;;;;2.22;71.83;99247.31;1820725;78;21582;-64
2021/01/27 00:15:41;;;;;;;10.55;8.45;;;;;;;2.21;71.56;99246.48;1820712;78;21332;-64
2021/01/27 00:18:11;;;;;;;9.98;8.83;;;;;;;2.20;71.79;99247.37;1820620;78;20989;-63
2021/01/27 00:20:39;;;;;;;11.10;8.40;;;;;;;2.19;71.90;99246.14;1820683;78;20993;-63
2021/01/27 00:23:07;;;;;;;9.90;8.23;;;;;;;2.18;72.03;99239.33;1820626;78;21005;-63
2021/01/27 00:25:37;;;;;;;8.90;7.60;;;;;;;2.17;72.23;99235.92;1820698;78;21570;-64
2021/01/27 00:28:06;;;;;;;10.78;8.68;;;;;;;2.18;72.35;99236.31;1820613;78;21369;-63
2021/01/27 00:30:42;;;;;;;11.73;9.15;;;;;;;2.19;72.16;99232.02;1820566;78;20987;-63
2021/01/27 00:33:13;;;;;;;10.95;9.10;;;;;;;2.20;72.18;99228.55;1820929;78;21301;-63
2021/01/27 00:35:45;;;;;;;10.35;8.83;;;;;;;2.20;72.17;99224.70;1820746;78;20922;-63
2021/01/27 00:38:20;;;;;;;13.22;9.33;;;;;;;2.19;72.43;99225.15;1796044;78;20941;-63
2021/01/27 00:40:48;;;;;;;12.60;9.25;;;;;;;2.19;72.41;99224.31;1820705;78;21430;-64
2021/01/27 00:43:17;;;;;;;9.83;8.83;;;;;;;2.18;72.35;99229.89;1820632;78;21653;-63
2021/01/27 00:45:45;;;;;;;10.43;8.78;;;;;;;2.17;72.32;99223.52;1820661;78;21348;-64
2021/01/27 00:48:14;;;;;;;10.95;9.10;;;;;;;2.15;72.34;99225.30;1820594;78;21500;-64
2021/01/27 00:50:42;;;;;;;12.05;9.70;;;;;;;2.14;72.33;99237.75;1820690;78;20941;-64
2021/01/27 00:53:10;;;;;;;10.15;8.93;;;;;;;2.11;72.33;99227.14;1820671;78;22168;-63
2021/01/27 00:55:41;;;;;;;9.75;8.75;;;;;;;2.09;72.15;99230.20;1820550;78;21493;-64
2021/01/27 00:58:09;;;;;;;11.50;9.10;;;;;;;2.04;72.11;99235.10;1820656;78;21000;-64
2021/01/27 01:00:40;;;;;;;11.38;8.73;;;;;;;1.99;71.90;99236.13;1820604;78;21574;-64
2021/01/27 01:03:19;;;;;;;9.38;7.97;;;;;;;1.95;72.18;99234.99;1819757;78;21471;-63
2021/01/27 01:05:48;;;;;;;12.07;8.95;;;;;;;1.88;72.47;99242.06;1820673;78;22215;-64
2021/01/27 01:08:18;;;;;;;10.00;8.95;;;;;;;1.82;72.74;99241.42;1820528;78;21011;-64
2021/01/27 01:10:50;;;;;;;9.45;8.00;;;;;;;1.76;72.79;99250.16;1820648;78;21021;-63
2021/01/27 01:13:22;;;;;;;9.85;8.03;;;;;;;1.71;72.93;99250.75;1820713;78;21536;-64
2021/01/27 01:15:51;;;;;;;12.25;8.95;;;;;;;1.68;73.03;99252.97;1820641;78;20922;-64
2021/01/27 01:18:20;;;;;;;11.97;8.70;;;;;;;1.68;72.98;99255.53;1820619;78;21144;-63
2021/01/27 01:20:48;;;;;;;10.03;8.90;;;;;;;1.68;73.13;99247.84;1820570;78;21028;-64
2021/01/27 01:23:19;;;;;;;10.88;8.88;;;;;;;1.70;73.27;99256.77;1820607;78;21609;-64
2021/01/27 01:25:48;;;;;;;9.25;8.20;;;;;;;1.73;73.33;99248.98;1820617;78;20997;-64
2021/01/27 01:28:16;;;;;;;10.98;9.03;;;;;;;1.73;73.53;99259.69;1820590;78;21025;-64
2021/01/27 01:30:46;;;;;;;9.55;8.43;;;;;;;1.74;73.53;99260.08;1821385;78;21189;-63
2021/01/27 01:33:18;;;;;;;9.60;8.13;;;;;;;1.75;73.28;99256.63;1822276;78;20957;-63
2021/01/27 01:35:47;;;;;;;11.10;8.48;;;;;;;1.75;73.35;99257.91;1822483;78;21562;-69
2021/01/27 01:38:15;;;;;;;9.13;8.23;;;;;;;1.76;73.44;99246.75;1822417;78;21490;-69
2021/01/27 01:40:51;;;;;;;14.35;9.48;;;;;;;1.75;73.32;99249.77;1822348;78;21495;-69
2021/01/27 01:43:32;;;;;;;11.60;9.10;;;;;;;1.77;73.18;99258.25;1822475;78;21191;-68
2021/01/27 01:46:11;;;;;;;12.78;9.15;;;;;;;1.78;73.13;99250.95;1822339;78;21554;-69
2021/01/27 01:48:51;;;;;;;10.68;9.20;;;;;;;1.80;72.80;99268.42;1817013;78;21587;-68
2021/01/27 01:51:34;;;;;;;11.38;9.45;;;;;;;1.80;72.77;99276.13;1822314;78;21590;-69
2021/01/27 01:54:23;;;;;;;9.65;8.33;;;;;;;1.77;72.88;99274.94;1822375;78;21494;-69
2021/01/27 01:57:06;;;;;;;10.78;8.53;;;;;;;1.80;73.02;99270.15;1822381;78;22156;-69
2021/01/27 01:59:34;;;;;;;10.28;9.18;;;;;;;1.82;72.78;99271.78;1822267;78;21479;-69
2021/01/27 02:02:05;;;;;;;10.28;9.18;;;;;;;1.81;72.62;99268.81;1822320;78;21372;-69
2021/01/27 02:04:50;;;;;;;14.73;11.40;;;;;;;1.82;72.58;99264.08;1797370;78;20961;-69
2021/01/27 02:07:19;;;;;;;11.20;9.68;;;;;;;1.82;72.60;99269.21;1790123;80;21003;-68
2021/01/27 02:09:48;;;;;;;14.98;9.25;;;;;;;1.83;72.50;99264.47;1802027;79;21196;-68
2021/01/27 02:12:44;;;;;;;12.05;9.73;;;;;;;1.85;72.45;99261.86;1802024;79;21460;-69
2021/01/27 02:15:45;;;;;;;10.20;8.50;;;;;;;1.85;72.41;99256.72;1802076;79;20907;-69
2021/01/27 02:19:04;;;;;;;10.70;8.73;;;;;;;1.85;72.66;99256.28;1770207;78;21494;-69
2021/01/27 02:22:03;;;;;;;12.70;9.85;;;;;;;1.85;72.30;99255.44;1802167;79;21311;-69
2021/01/27 02:24:51;;;;;;;10.28;9.10;;;;;;;1.86;72.17;99260.97;1802042;79;22090;-69
2021/01/27 02:27:33;;;;;;;12.07;9.13;;;;;;;1.85;72.22;99261.86;1801802;79;21575;-68
2021/01/27 02:30:50;;;;;;;12.55;9.50;;;;;;;1.84;72.37;99258.89;1787880;79;21452;-69
2021/01/27 02:33:59;;;;;;;13.03;9.25;;;;;;;1.83;72.42;99253.37;1802012;79;21550;-63
2021/01/27 02:36:31;;;;;;;12.25;9.75;;;;;;;1.82;72.40;99258.11;1801843;79;21558;-63
2021/01/27 02:39:26;;;;;;;12.07;8.90;;;;;;;1.79;72.41;99257.77;1754782;79;21309;-63
2021/01/27 02:42:19;;;;;;;11.53;8.15;;;;;;;1.79;72.56;99256.92;1802095;79;21373;-69
2021/01/27 02:44:56;;;;;;;10.60;8.63;;;;;;;1.78;72.67;99255.24;1802029;79;20942;-69
2021/01/27 02:47:27;;;;;;;9.23;8.30;;;;;;;1.78;72.54;99257.36;1802089;79;20926;-69
2021/01/27 02:50:03;;;;;;;9.88;8.25;;;;;;;1.79;72.29;99267.19;1802045;79;21598;-69
2021/01/27 02:52:35;;;;;;;11.48;8.60;;;;;;;1.78;72.24;99258.65;1802299;79;22107;-63
2021/01/27 02:55:27;;;;;;;9.90;8.43;;;;;;;1.78;72.13;99262.50;1780171;79;21009;-62
2021/01/27 02:58:05;;;;;;;9.63;8.50;;;;;;;1.79;72.51;99266.74;1802020;79;21468;-63
2021/01/27 03:00:37;;;;;;;9.85;7.97;;;;;;;1.79;72.46;99256.92;1780407;79;21502;-62
2021/01/27 03:03:22;;;;;;;8.65;7.75;;;;;;;1.79;72.59;99268.47;1802037;79;20887;-63
2021/01/27 03:05:58;;;;;;;9.60;8.40;;;;;;;1.80;72.41;99262.45;1802033;79;21194;-63
2021/01/27 03:08:29;;;;;;;10.82;8.63;;;;;;;1.80;72.28;99260.72;1802082;79;21128;-63
2021/01/27 03:11:10;;;;;;;12.82;8.15;;;;;;;1.79;72.29;99259.48;1802082;79;21559;-63
2021/01/27 03:13:38;;;;;;;10.38;8.50;;;;;;;1.78;72.28;99256.08;1801994;79;21590;-63
2021/01/27 03:16:11;;;;;;;10.30;8.53;;;;;;;1.77;72.24;99252.28;1802045;79;21610;-63
2021/01/27 03:18:43;;;;;;;8.93;8.03;;;;;;;1.77;72.16;99260.82;1801984;79;21421;-63
2021/01/27 03:21:15;;;;;;;8.93;7.83;;;;;;;1.75;72.17;99263.05;1802022;79;20938;-63
2021/01/27 03:23:53;;;;;;;10.43;8.45;;;;;;;1.72;72.09;99256.28;1802001;79;21380;-63
2021/01/27 03:26:34;;;;;;;10.18;8.50;;;;;;;1.70;72.19;99256.77;1801966;79;20938;-62
2021/01/27 03:29:39;;;;;;;9.95;8.35;;;;;;;1.68;72.17;99263.23;1801973;79;21499;-62
2021/01/27 03:32:24;;;;;;;11.70;8.60;;;;;;;1.67;72.36;99270.54;1815688;78;22371;-63
2021/01/27 03:35:09;;;;;;;9.93;8.45;;;;;;;1.67;72.42;99260.72;1847553;77;21955;-62
2021/01/27 03:37:52;;;;;;;10.72;8.98;;;;;;;1.69;72.52;99264.08;1807930;78;21008;-63
2021/01/27 03:40:21;;;;;;;11.35;8.90;;;;;;;1.70;72.48;99255.93;1832517;78;21573;-63
2021/01/27 03:43:06;;;;;;;10.10;8.95;;;;;;;1.71;72.48;99251.19;1832676;78;20980;-63
2021/01/27 03:45:36;;;;;;;11.00;9.00;;;;;;;1.71;72.53;99253.77;1832435;78;21202;-64
2021/01/27 03:48:25;;;;;;;10.70;9.10;;;;;;;1.70;72.43;99254.65;1802769;78;20941;-63
2021/01/27 03:50:56;;;;;;;13.90;9.05;;;;;;;1.68;72.46;99254.25;1832053;78;21573;-63
2021/01/27 03:53:25;;;;;;;10.80;8.90;;;;;;;1.68;72.55;99252.97;1802737;78;20973;-63
2021/01/27 03:56:24;;;;;;;12.15;10.13;;;;;;;1.67;72.53;99261.56;1832421;78;20933;-63
2021/01/27 03:58:52;;;;;;;11.08;9.25;;;;;;;1.67;72.65;99258.16;1816493;79;21518;-63
2021/01/27 04:01:22;;;;;;;12.50;8.85;;;;;;;1.67;72.80;99258.16;1815326;79;21587;-63
2021/01/27 04:03:52;;;;;;;13.50;8.98;;;;;;;1.66;72.80;99252.63;1849818;77;20977;-63
2021/01/27 04:06:20;;;;;;;9.95;8.80;;;;;;;1.67;72.84;99255.59;1815308;79;21067;-66
2021/01/27 04:08:49;;;;;;;9.30;8.30;;;;;;;1.64;72.95;99250.11;1814796;79;21005;-64
2021/01/27 04:11:17;;;;;;;9.68;8.03;;;;;;;1.63;72.89;99246.30;1815406;79;22079;-63
2021/01/27 04:13:46;;;;;;;11.20;8.50;;;;;;;1.60;72.88;99249.81;1814705;79;21482;-63
2021/01/27 04:16:14;;;;;;;10.28;8.58;;;;;;;1.61;72.99;99254.50;1815350;79;20878;-63
2021/01/27 04:18:44;;;;;;;9.65;8.43;;;;;;;1.60;73.08;99247.24;1849824;77;20933;-64
2021/01/27 04:21:12;;;;;;;10.05;8.28;;;;;;;1.61;72.95;99257.06;1815370;79;21352;-64
2021/01/27 04:23:40;;;;;;;10.10;7.87;;;;;;;1.60;72.82;99251.09;1814811;79;22173;-63
2021/01/27 04:26:09;;;;;;;9.45;7.47;;;;;;;1.58;72.66;99259.31;1815274;79;21558;-63
2021/01/27 04:28:37;;;;;;;9.48;7.70;;;;;;;1.57;72.78;99263.21;1814788;79;21447;-64
2021/01/27 04:31:05;;;;;;;9.50;8.05;;;;;;;1.56;72.92;99264.94;1815205;79;21455;-63
2021/01/27 04:33:34;;;;;;;9.08;8.08;;;;;;;1.56;72.82;99263.66;1814822;79;21561;-63
2021/01/27 04:36:04;;;;;;;8.90;8.00;;;;;;;1.56;72.87;99267.50;1815533;79;21325;-63
2021/01/27 04:38:32;;;;;;;10.50;7.58;;;;;;;1.56;72.78;99264.09;1814966;79;20949;-63
2021/01/27 04:41:00;;;;;;;9.95;8.53;;;;;;;1.56;72.86;99271.35;1815595;79;21392;-63
2021/01/27 04:43:43;;;;;;;10.60;8.13;;;;;;;1.57;73.46;99270.91;1814841;79;21589;-63
2021/01/27 04:46:22;;;;;;;10.88;8.60;;;;;;;1.60;73.69;99274.66;1815500;79;20925;-64
2021/01/27 04:49:25;;;;;;;12.30;9.55;;;;;;;1.64;73.44;99274.48;1842463;77;22364;-65
2021/01/27 04:52:17;;;;;;;10.63;8.50;;;;;;;1.68;72.81;99286.33;1832845;78;20949;-64
2021/01/27 04:55:24;;;;;;;11.03;8.40;;;;;;;1.70;72.49;99286.73;1829895;78;21052;-65
2021/01/27 04:58:20;;;;;;;9.90;7.83;;;;;;;1.69;72.14;99288.45;1832545;78;21474;-64
2021/01/27 05:01:23;;;;;;;10.55;8.33;;;;;;;1.64;72.04;99282.63;1832703;78;21008;-64
2021/01/27 05:04:25;;;;;;;9.38;7.40;;;;;;;1.60;72.24;99279.31;1832574;78;21198;-64
2021/01/27 05:06:58;;;;;;;11.80;8.55;;;;;;;1.59;72.05;99279.39;1832502;78;21510;-64
2021/01/27 05:09:33;;;;;;;13.28;8.73;;;;;;;1.57;72.02;99281.17;1832139;78;21004;-64
2021/01/27 05:12:02;;;;;;;11.12;8.50;;;;;;;1.57;71.97;99282.01;1832533;78;21012;-64
2021/01/27 05:14:30;;;;;;;11.95;9.18;;;;;;;1.54;71.92;99283.83;1832663;78;21021;-64
2021/01/27 05:17:01;;;;;;;9.98;8.55;;;;;;;1.52;72.87;99283.87;1832476;78;22114;-64
2021/01/27 05:19:30;;;;;;;12.25;10.28;;;;;;;1.54;72.71;99287.68;1832578;78;21554;-64
2021/01/27 05:21:58;;;;;;;24.43;9.48;;;;;;;1.55;72.19;99291.92;1816635;79;21566;-64
2021/01/27 05:24:27;;;;;;;12.30;9.68;;;;;;;1.54;72.05;99292.81;1815413;79;21617;-64
2021/01/27 05:27:02;;;;;;;11.03;9.38;;;;;;;1.51;71.87;99298.03;1815027;79;21475;-64
2021/01/27 05:30:03;;;;;;;12.25;9.98;;;;;;;1.49;71.85;99297.24;1813692;79;22191;-64
2021/01/27 05:32:50;;;;;;;15.08;11.15;;;;;;;1.47;72.20;99296.00;1814957;79;21507;-64
2021/01/27 05:35:37;;;;;;;12.90;9.45;;;;;;;1.50;72.97;99297.64;1824088;78;20981;-64
2021/01/27 05:38:30;;;;;;;17.12;9.90;;;;;;;1.56;73.55;99305.15;1823982;78;21491;-65
2021/01/27 05:41:22;;;;;;;13.50;10.08;;;;;;;1.63;73.41;99295.06;1776849;78;20983;-63
2021/01/27 05:43:54;;;;;;;11.55;9.50;;;;;;;1.70;73.58;99299.12;1817011;79;22155;-65
2021/01/27 05:46:33;;;;;;;12.93;10.05;;;;;;;1.77;73.21;99303.61;1823989;78;20909;-64
2021/01/27 05:49:03;;;;;;;14.70;12.65;;;;;;;1.80;72.71;99305.64;1816987;79;21309;-64
2021/01/27 05:51:36;;;;;;;12.70;9.83;;;;;;;1.83;72.33;99309.84;1823999;78;21407;-65
2021/01/27 05:54:26;;;;;;;12.40;9.83;;;;;;;1.84;72.09;99314.92;1803486;78;20993;-66
2021/01/27 05:56:55;;;;;;;12.25;9.25;;;;;;;1.85;72.05;99323.46;1803299;78;21214;-64
2021/01/27 05:59:26;;;;;;;15.75;10.20;;;;;;;1.86;72.26;99323.86;1797594;78;20954;-64
2021/01/27 06:02:03;;;;;;;15.05;11.18;;;;;;;1.87;72.24;99321.24;1794522;78;20985;-67
2021/01/27 06:04:35;;;;;;;19.40;13.40;;;;;;;1.89;72.21;99318.62;1800813;78;21036;-65
2021/01/27 06:07:23;;;;;;;15.95;12.55;;;;;;;1.91;72.07;99321.98;1794303;79;21041;-66
2021/01/27 06:09:54;;;;;;;16.95;12.28;;;;;;;1.92;71.90;99330.08;1798398;78;21613;-67
2021/01/27 06:12:27;;;;;;;16.60;11.08;;;;;;;1.92;71.78;99320.66;1793677;78;22420;-70
2021/01/27 06:15:10;;;;;;;14.70;11.70;;;;;;;1.93;71.74;99326.62;1805827;78;21096;-66
2021/01/27 06:17:49;;;;;;;18.37;11.35;;;;;;;1.94;71.63;99333.00;1812758;78;21628;-70
2021/01/27 06:20:32;;;;;;;15.30;12.10;;;;;;;1.95;71.55;99332.55;1799389;78;21008;-71
2021/01/27 06:23:30;;;;;;;15.78;11.55;;;;;;;1.94;71.53;99330.87;1802687;78;21515;-75
2021/01/27 06:26:24;;;;;;;19.10;11.63;;;;;;;1.95;71.68;99338.53;1736526;81;21102;-70
2021/01/27 06:29:27;;;;;;;15.38;11.15;;;;;;;2.00;71.64;99337.91;1862902;75;22694;-71
2021/01/27 06:32:08;;;;;;;17.70;12.73;;;;;;;1.98;71.54;99341.44;1831923;77;21009;-69
2021/01/27 06:35:20;;;;;;;18.25;12.70;;;;;;;1.97;71.44;99338.03;1848949;77;22172;-68
2021/01/27 06:38:12;;;;;;;22.07;13.15;;;;;;;1.97;71.41;99336.75;1844162;77;21052;-68
2021/01/27 06:40:55;;;;;;;19.20;13.15;;;;;;;1.94;71.23;99331.72;1751713;78;21102;-65
2021/01/27 06:43:59;;;;;;;17.05;12.45;;;;;;;1.95;71.30;99331.27;1848910;76;21059;-68
2021/01/27 06:46:53;;;;;;;16.02;10.78;;;;;;;1.96;71.45;99323.52;1804704;77;21166;-75
2021/01/27 06:49:42;;;;;;;15.20;10.20;;;;;;;1.97;71.49;99329.49;1826258;77;21365;-70
2021/01/27 06:52:36;;;;;;;19.57;11.85;;;;;;;1.99;71.58;99315.72;1825580;77;21088;-67
2021/01/27 06:55:19;;;;;;;16.37;11.83;;;;;;;2.00;71.63;99313.95;1844553;77;21621;-71
2021/01/27 06:58:19;;;;;;;15.55;11.53;;;;;;;2.03;71.69;99316.42;1841370;77;21656;-71
2021/01/27 07:00:55;;;;;;;16.42;13.08;;;;;;;2.06;71.64;99314.20;1831923;77;21021;-71
2021/01/27 07:03:54;;;;;;;18.57;13.18;;;;;;;2.10;71.66;99324.77;1829392;77;21311;-68
2021/01/27 07:07:03;;;;;;;35.10;22.93;;;;;;;2.12;71.44;99338.41;1838236;76;21638;-72
2021/01/27 07:10:18;;;;;;;17.90;12.95;;;;;;;2.15;71.38;99345.56;1832396;77;26528;-68
2021/01/27 07:12:54;;;;;;;17.07;12.28;;;;;;;2.17;71.18;99342.95;1841744;77;21121;-71
2021/01/27 07:15:46;;;;;;;;;;;;;;;2.18;71.10;99342.05;1832748;77;21044;-67
2021/01/27 07:18:51;;;;;;;14.60;10.85;;;;;;;2.19;70.81;99340.72;1839123;76;21975;-69
2021/01/27 07:21:43;;;;;;;13.43;10.93;;;;;;;2.18;70.85;99344.63;1832338;77;21320;-69
2021/01/27 07:24:22;;;;;;;13.03;10.13;;;;;;;2.19;70.83;99339.44;1831614;77;21028;-65
2021/01/27 07:26:56;;;;;;;12.98;10.78;;;;;;;2.22;70.79;99339.34;1834563;77;20992;-68
2021/01/27 07:29:32;;;;;;;14.63;10.20;;;;;;;2.25;70.85;99342.25;1798628;78;21096;-71
2021/01/27 07:32:08;;;;;;;15.18;11.22;;;;;;;2.28;70.80;99349.86;1771854;78;21192;-70
2021/01/27 07:35:09;;;;;;;16.27;11.55;;;;;;;2.33;70.81;99355.69;1768139;80;21049;-68
2021/01/27 07:37:57;;;;;;;17.50;13.00;;;;;;;2.36;70.87;99359.44;1795556;78;20998;-70
2021/01/27 07:40:48;;;;;;;16.17;12.80;;;;;;;2.39;70.81;99362.35;1804514;78;21072;-72
2021/01/27 07:43:24;;;;;;;19.07;11.95;;;;;;;2.41;70.80;99359.25;1731745;79;20968;-70
2021/01/27 07:45:55;;;;;;;14.68;10.93;;;;;;;2.44;70.88;99356.59;1794454;79;22190;-68
2021/01/27 07:48:40;;;;;;;12.45;9.80;;;;;;;2.45;70.75;99353.13;1784981;79;21150;-70
2021/01/27 07:51:14;;;;;;;18.30;12.13;;;;;;;2.46;70.71;99345.81;1760186;79;21056;-72
2021/01/27 07:54:00;;;;;;;16.85;11.40;;;;;;;2.49;70.76;99345.27;1786818;79;21708;-68
2021/01/27 07:56:34;;;;;;;13.80;9.75;;;;;;;2.50;70.79;99343.09;1786093;78;21066;-70
2021/01/27 08:02:17;;;;;;;14.45;9.95;;;;;;;2.58;70.72;99353.95;1791358;78;21683;-66
2021/01/27 08:04:55;;;;;;;26.40;14.85;;;;;;;2.62;70.95;99358.53;1793201;79;21621;-66
2021/01/27 08:07:32;;;;;;;20.27;11.45;;;;;;;2.64;70.63;99357.59;1806338;78;21084;-67
2021/01/27 08:10:28;;;;;;;12.58;9.30;;;;;;;2.67;70.49;99356.20;1811892;78;20910;-67
2021/01/27 08:13:04;;;;;;;11.15;8.98;;;;;;;2.72;70.25;99361.63;1810505;78;21385;-68
2021/01/27 08:15:43;;;;;;;11.60;9.08;;;;;;;2.73;69.86;99365.88;1805384;78;20993;-69
2021/01/27 08:18:17;;;;;;;11.70;9.60;;;;;;;2.77;69.94;99368.74;1765245;80;21045;-73
2021/01/27 08:20:46;;;;;;;11.93;10.20;;;;;;;2.80;69.90;99366.88;1805996;78;21613;-72
2021/01/27 08:23:26;;;;;;;12.63;10.10;;;;;;;2.83;69.85;99377.05;1783701;79;20973;-69
2021/01/27 08:26:07;;;;;;;13.22;11.08;;;;;;;2.85;69.83;99362.41;1802063;78;21140;-67
2021/01/27 08:28:44;;;;;;;13.65;10.78;;;;;;;2.89;69.68;99361.41;1785207;79;21642;-75
2021/01/27 08:31:16;;;;;;;13.20;10.88;;;;;;;2.93;69.48;99369.86;1785672;79;21041;-75
2021/01/27 08:33:52;;;;;;;14.50;10.68;;;;;;;2.96;69.35;99374.89;1780406;79;21555;-71
2021/01/27 08:36:35;;;;;;;11.60;9.80;;;;;;;2.98;69.28;99376.52;1779577;79;21005;-71
2021/01/27 08:39:12;;;;;;;12.23;10.28;;;;;;;3.03;68.94;99372.50;1778974;79;21005;-68
2021/01/27 08:42:01;;;;;;;14.75;10.18;;;;;;;3.07;68.74;99371.95;1775583;79;20954;-66
2021/01/27 08:44:37;;;;;;;16.05;10.68;;;;;;;3.10;68.75;99367.53;1773345;79;21609;-68
2021/01/27 08:47:19;;;;;;;14.07;9.65;;;;;;;3.14;68.84;99364.41;1774775;79;20960;-78
2021/01/27 08:49:59;;;;;;;13.90;10.43;;;;;;;3.18;68.76;99362.11;1775747;79;21292;-72
2021/01/27 08:52:31;;;;;;;15.72;9.00;;;;;;;3.22;68.25;99356.77;1748563;79;21295;-73
2021/01/27 08:55:01;;;;;;;12.60;9.68;;;;;;;3.27;68.32;99360.02;1780142;79;21684;-69
2021/01/27 08:57:36;;;;;;;12.03;9.88;;;;;;;3.33;68.40;99357.22;1831509;77;21035;-67
2021/01/27 09:00:23;;;;;;;13.13;9.50;;;;;;;3.40;67.99;99353.13;1845179;77;21040;-73
2021/01/27 09:02:59;;;;;;;;;;;;;;;3.47;67.40;99358.44;1751880;77;21230;-75
2021/01/27 09:05:34;;;;;;;12.10;9.63;;;;;;;3.51;66.83;99352.28;1841370;77;21180;-76
2021/01/27 09:08:09;;;;;;;;;;;;;;;3.53;66.71;99353.06;1843575;77;21032;-70
2021/01/27 09:10:48;;;;;;;11.90;9.43;;;;;;;3.58;66.49;99353.73;1839390;77;20258;-72
2021/01/27 09:13:38;;;;;;;11.15;8.43;;;;;;;3.62;67.04;99351.39;1837149;77;21522;-68
2021/01/27 09:16:29;;;;;;;13.08;9.40;;;;;;;3.69;67.95;99347.69;1839377;77;20973;-73
2021/01/27 09:19:23;;;;;;;10.53;9.38;;;;;;;3.76;67.65;99343.98;1782731;79;21363;-69
2021/01/27 09:22:10;;;;;;;12.28;8.93;;;;;;;3.81;66.50;99342.52;1754479;80;21082;-70
2021/01/27 09:24:48;;;;;;;10.45;8.70;;;;;;;3.83;66.02;99344.13;1790004;78;21013;-70
2021/01/27 09:27:24;;;;;;;12.15;9.83;;;;;;;3.85;65.61;99344.91;1788718;78;20918;-69
2021/01/27 09:29:56;;;;;;;12.03;9.95;;;;;;;3.86;65.28;99340.15;1778813;79;21562;-70
2021/01/27 09:32:26;;;;;;;11.80;9.15;;;;;;;3.85;65.04;99337.19;1777539;79;21386;-71
2021/01/27 09:35:22;;;;;;;11.65;8.90;;;;;;;3.83;64.87;99338.14;1747383;79;20976;-65
2021/01/27 09:38:00;;;;;;;12.82;9.83;;;;;;;3.82;64.78;99334.73;1798650;77;21060;-70
2021/01/27 09:40:37;;;;;;;;;;;;;;;3.80;64.44;99331.37;1832807;76;21062;-73
2021/01/27 09:43:13;;;;;;;12.50;9.38;;;;;;;3.77;64.46;99322.48;1827612;77;20180;-70
2021/01/27 09:45:46;;;;;;;11.50;9.65;;;;;;;3.76;64.73;99327.69;1827548;76;21202;-72
2021/01/27 09:48:17;;;;;;;12.30;9.13;;;;;;;3.75;64.72;99324.28;1827374;77;21558;-77
2021/01/27 09:50:51;;;;;;;12.53;8.90;;;;;;;3.75;64.74;99332.45;1828109;76;20992;-69
2021/01/27 09:53:29;;;;;;;11.68;9.78;;;;;;;3.75;64.76;99328.14;1774545;79;21001;-66
2021/01/27 09:55:58;;;;;;;12.43;8.03;;;;;;;3.75;64.71;99325.56;1776582;79;21009;-65
2021/01/27 09:58:27;;;;;;;11.78;9.58;;;;;;;3.75;64.16;99317.84;1772767;79;21379;-64
2021/01/27 10:01:03;;;;;;;10.20;7.58;;;;;;;3.75;63.77;99319.58;1772819;79;22391;-64
2021/01/27 10:04:03;;;;;;;8.83;7.92;;;;;;;3.73;63.87;99322.66;1776882;79;21575;-66
2021/01/27 10:06:57;;;;;;;11.78;8.63;;;;;;;3.69;63.85;99323.23;1808637;78;21688;-66
2021/01/27 10:09:31;;;;;;;10.63;8.35;;;;;;;3.65;63.94;99310.92;1805752;78;21597;-67
2021/01/27 10:12:03;;;;;;;12.65;8.85;;;;;;;3.62;64.10;99317.48;1780253;78;21196;-67
2021/01/27 10:14:34;;;;;;;11.95;9.03;;;;;;;3.61;64.25;99318.83;1801369;78;22127;-65
2021/01/27 10:17:04;;;;;;;12.93;8.70;;;;;;;3.61;64.18;99326.55;1803123;78;21036;-66
2021/01/27 10:19:48;;;;;;;11.48;8.98;;;;;;;3.58;64.14;99323.67;1807125;78;20992;-66
2021/01/27 10:22:26;;;;;;;12.07;9.83;;;;;;;3.56;64.15;99322.05;1806805;78;21597;-67
2021/01/27 10:25:03;;;;;;;15.13;10.38;;;;;;;3.56;64.54;99322.89;1806733;78;21364;-67
2021/01/27 10:27:36;;;;;;;11.97;9.73;;;;;;;3.58;64.32;99324.13;1802096;78;21001;-66
2021/01/27 10:30:19;;;;;;;13.62;9.30;;;;;;;3.58;64.12;99324.96;1805172;78;21126;-64
2021/01/27 10:32:48;;;;;;;11.20;9.18;;;;;;;3.56;64.39;99325.47;1801637;78;21585;-69
2021/01/27 10:35:28;;;;;;;12.45;9.55;;;;;;;3.56;64.50;99322.05;1803128;78;21068;-71
2021/01/27 10:38:12;;;;;;;10.38;8.73;;;;;;;3.53;64.32;99315.73;1804281;78;21481;-74
2021/01/27 10:41:07;;;;;;;11.97;9.15;;;;;;;3.50;64.53;99322.29;1796904;78;22349;-70
2021/01/27 10:43:35;;;;;;;12.40;9.80;;;;;;;3.49;64.61;99323.19;1799697;78;21493;-69
2021/01/27 10:46:30;;;;;;;10.95;9.45;;;;;;;3.47;65.09;99318.55;1799796;78;21644;-70
2021/01/27 10:48:59;;;;;;;11.88;9.50;;;;;;;3.48;65.26;99320.22;1763160;78;20993;-69
2021/01/27 10:51:28;;;;;;;12.43;9.80;;;;;;;3.47;65.16;99312.11;1803381;78;21427;-74
2021/01/27 10:53:57;;;;;;;15.78;10.90;;;;;;;3.45;65.81;99310.05;1802530;78;22121;-68
2021/01/27 10:56:26;;;;;;;14.05;10.38;;;;;;;3.43;66.41;99307.53;1788323;78;21188;-74
2021/01/27 10:58:55;;;;;;;17.27;10.80;;;;;;;3.44;66.32;99311.78;1801910;78;21661;-72
2021/01/27 11:01:26;;;;;;;28.83;18.48;;;;;;;3.40;66.23;99308.94;1808142;78;21055;-70
2021/01/27 11:03:55;;;;;;;16.32;11.90;;;;;;;3.38;66.09;99304.30;1799835;78;21365;-68
2021/01/27 11:06:23;;;;;;;15.95;10.88;;;;;;;3.35;66.22;99298.81;1808370;78;21441;-68
2021/01/27 11:08:52;;;;;;;17.02;10.28;;;;;;;3.34;65.93;99297.14;1801116;78;21651;-68
2021/01/27 11:11:20;;;;;;;19.10;12.28;;;;;;;3.34;65.60;99299.70;1824453;78;21039;-70
2021/01/27 11:13:49;;;;;;;13.85;11.38;;;;;;;3.36;65.77;99293.22;1797440;78;21654;-70
2021/01/27 11:16:18;;;;;;;17.60;11.70;;;;;;;3.35;65.92;99291.09;1814376;78;22232;-68
2021/01/27 11:18:47;;;;;;;18.60;10.85;;;;;;;3.37;65.87;99292.77;1825380;78;21589;-68
2021/01/27 11:21:15;;;;;;;14.55;12.25;;;;;;;3.37;66.09;99294.05;1802578;78;21157;-67
2021/01/27 11:23:44;;;;;;;16.45;11.83;;;;;;;3.34;65.98;99289.41;1817776;78;21617;-69
2021/01/27 11:26:18;;;;;;;13.43;9.88;;;;;;;3.35;66.10;99294.95;1797818;78;20997;-68
2021/01/27 11:28:44;;;;;;;15.72;11.63;;;;;;;3.32;66.12;99296.36;1810991;78;21842;-68
2021/01/27 11:31:13;;;;;;;17.37;11.95;;;;;;;3.29;65.97;99296.47;1807941;78;21047;-69
2021/01/27 11:33:44;;;;;;;21.37;13.90;;;;;;;3.25;66.06;99303.08;1812513;78;20983;-69
2021/01/27 11:36:17;;;;;;;19.90;11.60;;;;;;;3.24;66.20;99306.55;1801767;78;21063;-68
2021/01/27 11:38:48;;;;;;;16.05;10.45;;;;;;;3.22;66.42;99309.17;1797887;78;21776;-69
2021/01/27 11:41:17;;;;;;;17.40;12.23;;;;;;;3.23;66.68;99306.16;1810474;78;21256;-68
2021/01/27 11:43:46;;;;;;;19.00;13.20;;;;;;;3.21;66.66;99308.78;1797109;78;21079;-66
2021/01/27 11:46:17;;;;;;;17.77;12.30;;;;;;;3.19;66.29;99307.20;1818376;78;21654;-68
2021/01/27 11:48:46;;;;;;;18.77;12.55;;;;;;;3.17;66.38;99317.54;1809614;78;21781;-67
2021/01/27 11:51:15;;;;;;;14.47;11.43;;;;;;;3.15;66.40;99309.05;1820126;78;21144;-69
2021/01/27 11:53:44;;;;;;;20.70;14.63;;;;;;;3.14;66.54;99303.51;1815524;78;22273;-68
2021/01/27 11:56:12;;;;;;;21.62;15.28;;;;;;;3.13;66.79;99300.55;1806632;78;21656;-69
2021/01/27 11:58:41;;;;;;;21.95;14.25;;;;;;;3.11;66.86;99304.91;1804500;78;21609;-67
2021/01/27 12:01:12;;;;;;;21.25;14.38;;;;;;;3.11;66.91;99310.05;1819542;78;21033;-70
2021/01/27 12:03:42;;;;;;;17.95;14.05;;;;;;;3.10;66.91;99302.39;1800311;78;21153;-67
2021/01/27 12:06:12;;;;;;;18.15;13.25;;;;;;;3.10;66.97;99308.82;1808699;78;21414;-67
2021/01/27 12:08:43;;;;;;;21.07;15.40;;;;;;;3.09;67.02;99308.43;1794841;78;21055;-65
2021/01/27 12:11:13;;;;;;;19.67;14.87;;;;;;;3.08;67.06;99305.47;1792355;78;21032;-68
2021/01/27 12:13:41;;;;;;;16.40;12.53;;;;;;;3.05;67.20;99296.58;1793055;78;21057;-67
2021/01/27 12:16:11;;;;;;;18.77;14.83;;;;;;;3.05;67.29;99295.29;1783428;78;20960;-69
2021/01/27 12:18:41;;;;;;;16.42;12.85;;;;;;;3.04;67.26;99299.59;1785299;78;21202;-71
2021/01/27 12:21:11;;;;;;;16.17;13.55;;;;;;;3.00;67.08;99301.44;1739930;79;21677;-68
2021/01/27 12:23:39;;;;;;;19.98;14.55;;;;;;;2.96;67.12;99297.75;1787083;78;20969;-66